Time;durP1;ratioP1;P1;durP2;ratioP2;P2;SDS_P1;SDS_P2;PMS_P1;PMS_P2;Temp;Humidity;BMP_temperature;BMP_pressure;BME280_temperature;BME280_humidity;BME280_pressure;Samples;Min_cycle;Max_cycle;Signal;HPM_P1;HPM_P2
2023/08/04 00:02:49;;;;;;;7.17;3.30;;;;;;;16.05;100.00;100091.38;6075578;28;20021;-65
2023/08/04 00:05:44;;;;;;;8.13;2.80;;;;;;;16.10;100.00;100096.13;6075174;28;20060;-65
2023/08/04 00:08:39;;;;;;;7.30;3.20;;;;;;;16.08;100.00;100107.03;6062911;28;20811;-65
2023/08/04 00:11:34;;;;;;;5.90;2.50;;;;;;;16.00;100.00;100090.31;6062927;28;20076;-65
2023/08/04 00:14:30;;;;;;;7.93;2.97;;;;;;;16.01;100.00;100098.13;6075107;28;20041;-65
2023/08/04 00:17:25;;;;;;;10.63;3.57;;;;;;;16.01;100.00;100097.31;6074381;28;20048;-64
2023/08/04 00:20:20;;;;;;;8.60;3.07;;;;;;;16.05;100.00;100114.63;6075536;28;20033;-65
2023/08/04 00:23:16;;;;;;;7.93;3.57;;;;;;;15.98;100.00;100109.22;6073828;28;20045;-65
2023/08/04 00:26:11;;;;;;;9.53;3.23;;;;;;;15.93;100.00;100105.47;6068920;28;20033;-65
2023/08/04 00:29:06;;;;;;;12.60;3.67;;;;;;;15.93;100.00;100113.50;6075284;28;20048;-65
2023/08/04 00:32:02;;;;;;;15.63;3.30;;;;;;;15.83;100.00;100105.00;6072247;28;20022;-65
2023/08/04 00:34:58;;;;;;;5.95;2.97;;;;;;;15.78;100.00;100120.81;6070265;28;20180;-65
2023/08/04 00:37:53;;;;;;;7.80;3.13;;;;;;;15.84;100.00;100136.09;6061790;28;20037;-65
2023/08/04 00:40:48;;;;;;;10.40;2.80;;;;;;;15.70;100.00;100120.94;6074539;28;20102;-65
2023/08/04 00:43:43;;;;;;;8.53;3.27;;;;;;;15.82;100.00;100141.59;6074250;28;20061;-65
2023/08/04 00:46:39;;;;;;;10.50;3.60;;;;;;;15.83;100.00;100143.28;6073309;28;20037;-65
2023/08/04 00:49:34;;;;;;;7.97;3.30;;;;;;;15.74;100.00;100139.06;6065917;28;20033;-65
2023/08/04 00:52:31;;;;;;;13.85;3.28;;;;;;;15.67;100.00;100130.19;6073072;28;20271;-65
2023/08/04 00:55:27;;;;;;;12.18;3.33;;;;;;;15.69;100.00;100136.16;6071399;28;20423;-65
2023/08/04 00:58:22;;;;;;;10.68;3.63;;;;;;;15.69;100.00;100129.97;6074578;28;20060;-65
2023/08/04 01:01:17;;;;;;;12.27;3.70;;;;;;;15.76;100.00;100141.56;6074238;28;20031;-65
2023/08/04 01:04:13;;;;;;;13.33;3.30;;;;;;;15.81;100.00;100144.50;6071064;28;20166;-65
2023/08/04 01:07:21;;;;;;;11.67;3.23;;;;;;;15.78;100.00;100145.69;6064778;28;20088;-64
2023/08/04 01:10:22;;;;;;;7.07;3.17;;;;;;;15.71;100.00;100144.00;6064463;28;20114;-65
2023/08/04 01:13:21;;;;;;;12.15;3.97;;;;;;;15.64;100.00;100143.94;6069314;28;20044;-65
2023/08/04 01:16:17;;;;;;;11.55;3.20;;;;;;;15.58;100.00;100135.84;6088149;28;20040;-65
2023/08/04 01:19:12;;;;;;;9.27;3.07;;;;;;;15.62;100.00;100161.19;6059165;28;20418;-65
2023/08/04 01:22:07;;;;;;;7.60;3.10;;;;;;;15.58;100.00;100167.91;6067563;28;20280;-65
2023/08/04 01:25:03;;;;;;;9.03;3.60;;;;;;;15.64;100.00;100173.34;6072062;28;20431;-65
2023/08/04 01:28:00;;;;;;;8.90;3.85;;;;;;;15.56;100.00;100164.63;6072759;28;20458;-65
2023/08/04 01:30:57;;;;;;;8.90;3.05;;;;;;;15.59;100.00;100172.25;6073718;28;20098;-65
2023/08/04 01:33:52;;;;;;;8.68;2.65;;;;;;;15.55;100.00;100171.81;6063322;28;20038;-65
2023/08/04 01:36:47;;;;;;;14.30;3.60;;;;;;;15.68;100.00;100187.16;6067912;28;20083;-65
2023/08/04 01:39:43;;;;;;;9.00;3.00;;;;;;;15.47;100.00;100148.72;6071854;28;20037;-65
2023/08/04 01:42:38;;;;;;;11.90;3.27;;;;;;;15.69;100.00;100183.44;6073696;28;20060;-65
2023/08/04 01:45:33;;;;;;;9.02;3.00;;;;;;;15.69;100.00;100188.78;6066886;28;20489;-65
2023/08/04 01:48:29;;;;;;;6.23;2.40;;;;;;;15.70;100.00;100198.47;6073728;28;20041;-65
2023/08/04 01:51:24;;;;;;;12.43;3.00;;;;;;;15.71;100.00;100202.81;6067009;28;20468;-65
2023/08/04 01:54:19;;;;;;;11.53;2.97;;;;;;;15.60;100.00;100193.44;6064628;28;20034;-64
2023/08/04 01:57:15;;;;;;;9.32;3.13;;;;;;;15.77;100.00;100220.75;6056592;28;20080;-65
2023/08/04 02:00:11;;;;;;;6.97;2.63;;;;;;;15.77;100.00;100224.25;6072258;28;20084;-65
2023/08/04 02:03:06;;;;;;;8.27;2.70;;;;;;;15.69;100.00;100215.53;6074393;28;20033;-64
2023/08/04 02:06:02;;;;;;;8.27;2.93;;;;;;;15.77;100.00;100218.06;6075815;28;20060;-65
2023/08/04 02:08:58;;;;;;;7.43;2.72;;;;;;;15.67;100.00;100207.72;6070447;28;20685;-65
2023/08/04 02:11:57;;;;;;;6.80;3.00;;;;;;;15.67;100.00;100230.94;6078674;28;20025;-65
2023/08/04 02:14:52;;;;;;;13.23;3.08;;;;;;;15.52;100.00;100214.94;6069209;28;20047;-64
2023/08/04 02:17:48;;;;;;;7.37;2.57;;;;;;;15.41;100.00;100224.25;6077491;28;20034;-64
2023/08/04 02:20:43;;;;;;;7.30;2.80;;;;;;;15.30;100.00;100227.41;6069912;28;20061;-65
2023/08/04 02:23:38;;;;;;;11.90;3.37;;;;;;;15.28;100.00;100234.81;6077507;28;20764;-65
2023/08/04 02:26:34;;;;;;;6.47;2.73;;;;;;;15.26;100.00;100236.84;6074330;28;20034;-65
2023/08/04 02:29:29;;;;;;;7.80;2.40;;;;;;;15.21;100.00;100246.44;6076271;28;20044;-65
2023/08/04 02:32:24;;;;;;;10.37;3.73;;;;;;;15.21;100.00;100255.28;6070489;28;20044;-65
2023/08/04 02:35:20;;;;;;;8.25;2.70;;;;;;;15.13;100.00;100247.38;6076733;28;20033;-65
2023/08/04 02:38:15;;;;;;;7.03;3.35;;;;;;;15.10;100.00;100253.09;6071798;28;20053;-65
2023/08/04 02:41:10;;;;;;;10.30;3.30;;;;;;;15.08;100.00;100260.47;6077010;28;20134;-65
2023/08/04 02:44:06;;;;;;;9.65;3.30;;;;;;;14.93;100.00;100259.63;6076732;28;20021;-65
2023/08/04 02:47:01;;;;;;;9.07;3.22;;;;;;;14.85;100.00;100254.38;6073524;28;20030;-65
2023/08/04 02:49:56;;;;;;;9.13;3.20;;;;;;;14.70;100.00;100257.03;6073571;28;20075;-65
2023/08/04 02:52:52;;;;;;;7.80;3.23;;;;;;;14.61;100.00;100266.19;6067330;28;20022;-65
2023/08/04 02:55:47;;;;;;;7.53;3.43;;;;;;;14.49;100.00;100259.63;6076233;28;20029;-65
2023/08/04 02:58:43;;;;;;;9.57;3.20;;;;;;;14.53;100.00;100276.09;6067851;28;20040;-64
2023/08/04 03:01:39;;;;;;;10.13;3.22;;;;;;;14.39;100.00;100268.91;6101394;28;20628;-65
2023/08/04 03:04:34;;;;;;;11.10;4.83;;;;;;;14.29;100.00;100267.28;6100286;28;20064;-65
2023/08/04 03:07:29;;;;;;;8.67;3.23;;;;;;;14.36;100.00;100279.94;6101142;28;20047;-65
2023/08/04 03:10:25;;;;;;;8.35;3.75;;;;;;;14.29;100.00;100287.81;6099562;28;20351;-65
2023/08/04 03:13:20;;;;;;;7.97;4.23;;;;;;;14.26;100.00;100289.00;6097702;28;20067;-65
2023/08/04 03:16:16;;;;;;;13.32;3.42;;;;;;;14.14;100.00;100284.25;6099538;28;20350;-65
2023/08/04 03:19:11;;;;;;;15.40;4.37;;;;;;;14.09;100.00;100284.81;6104593;28;20043;-65
2023/08/04 03:22:06;;;;;;;12.00;3.77;;;;;;;14.11;100.00;100282.78;6109319;28;20025;-65
2023/08/04 03:25:02;;;;;;;13.03;3.63;;;;;;;14.17;100.00;100303.41;6095438;28;20102;-65
2023/08/04 03:27:57;;;;;;;10.68;2.92;;;;;;;14.16;100.00;100306.22;6097561;28;20270;-65
2023/08/04 03:30:52;;;;;;;12.20;3.10;;;;;;;14.10;100.00;100296.31;6092923;28;20032;-65
2023/08/04 03:33:48;;;;;;;10.87;3.37;;;;;;;14.21;100.00;100315.34;6104023;28;20039;-64
2023/08/04 03:36:43;;;;;;;9.93;3.60;;;;;;;14.22;100.00;100327.69;6099263;28;20116;-65
2023/08/04 03:39:38;;;;;;;13.23;4.27;;;;;;;14.21;100.00;100307.34;6100059;28;20037;-64
2023/08/04 03:42:36;;;;;;;12.73;3.17;;;;;;;14.19;100.00;100312.03;6100252;28;20028;-65
2023/08/04 03:45:32;;;;;;;8.40;3.33;;;;;;;14.23;100.00;100328.53;6098570;28;20445;-64
2023/08/04 03:48:27;;;;;;;10.80;3.28;;;;;;;14.39;100.00;100335.59;6099779;28;20033;-65
2023/08/04 03:51:22;;;;;;;9.90;3.10;;;;;;;14.41;100.00;100338.91;6100169;28;20557;-64
2023/08/04 03:54:18;;;;;;;11.03;3.73;;;;;;;14.27;100.00;100322.66;6099196;28;20079;-65
2023/08/04 03:57:13;;;;;;;6.43;2.93;;;;;;;14.35;100.00;100331.63;6100226;28;20271;-65
2023/08/04 04:00:09;;;;;;;13.03;3.80;;;;;;;14.52;100.00;100349.16;6099956;28;20083;-65
2023/08/04 04:03:05;;;;;;;7.45;2.78;;;;;;;14.49;100.00;100330.81;6093213;28;20028;-65
2023/08/04 04:06:00;;;;;;;6.57;3.22;;;;;;;14.55;100.00;100343.44;6099103;28;20049;-64
2023/08/04 04:08:56;;;;;;;10.25;3.17;;;;;;;14.49;100.00;100330.81;6099479;28;20033;-65
2023/08/04 04:11:51;;;;;;;8.87;3.10;;;;;;;14.62;100.00;100350.53;6098908;28;20055;-64
2023/08/04 04:14:46;;;;;;;9.20;2.97;;;;;;;14.61;100.00;100351.56;6098800;28;20033;-65
2023/08/04 04:17:41;;;;;;;5.63;3.03;;;;;;;14.66;100.00;100351.03;6097761;28;20037;-64
2023/08/04 04:20:37;;;;;;;13.10;2.83;;;;;;;14.65;100.00;100354.69;6093539;28;20055;-64
2023/08/04 04:23:32;;;;;;;10.07;3.50;;;;;;;14.54;100.00;100347.16;6098733;28;20025;-64
2023/08/04 04:26:27;;;;;;;9.67;2.87;;;;;;;14.64;100.00;100361.91;6099104;28;20029;-65
2023/08/04 04:29:23;;;;;;;11.20;2.90;;;;;;;14.64;100.00;100353.06;6098533;28;20035;-65
2023/08/04 04:32:18;;;;;;;10.17;3.20;;;;;;;14.64;100.00;100361.06;6098445;28;20025;-65
2023/08/04 04:35:13;;;;;;;9.23;2.73;;;;;;;14.70;100.00;100363.81;6097931;28;20082;-65
2023/08/04 04:38:08;;;;;;;7.33;2.60;;;;;;;14.70;100.00;100357.69;6098833;28;20029;-65
2023/08/04 04:41:04;;;;;;;6.43;2.80;;;;;;;14.59;100.00;100344.75;6099362;28;20324;-65
2023/08/04 04:43:59;;;;;;;10.97;2.97;;;;;;;14.73;100.00;100368.00;6097575;28;20074;-65
2023/08/04 04:46:54;;;;;;;14.17;3.03;;;;;;;14.66;100.00;100354.53;6106527;28;20037;-65
2023/08/04 04:49:50;;;;;;;6.33;2.73;;;;;;;14.66;100.00;100357.19;6098718;28;20025;-64
2023/08/04 04:52:45;;;;;;;9.10;2.30;;;;;;;14.64;100.00;100359.22;6093639;28;20036;-65
2023/08/04 04:55:41;;;;;;;6.17;2.47;;;;;;;14.74;100.00;100386.47;6097970;28;20038;-65
2023/08/04 04:58:36;;;;;;;8.07;2.50;;;;;;;14.75;100.00;100381.97;6093743;28;20453;-64
2023/08/04 05:01:31;;;;;;;9.00;2.80;;;;;;;14.79;100.00;100378.75;6096056;28;20391;-65
2023/08/04 05:04:27;;;;;;;8.80;2.83;;;;;;;14.83;100.00;100377.41;6095631;28;20078;-65
2023/08/04 05:07:22;;;;;;;5.70;2.67;;;;;;;14.91;100.00;100379.16;6091581;28;20790;-64
2023/08/04 05:10:17;;;;;;;6.37;3.20;;;;;;;14.89;100.00;100378.50;6095133;28;20068;-64
2023/08/04 05:13:13;;;;;;;8.43;2.80;;;;;;;15.05;100.00;100386.34;6094110;28;20110;-65
2023/08/04 05:16:08;;;;;;;13.68;3.67;;;;;;;15.04;100.00;100390.03;6093941;28;20035;-64
2023/08/04 05:19:04;;;;;;;7.82;2.90;;;;;;;15.26;100.00;100381.09;6094187;28;20484;-65
2023/08/04 05:21:59;;;;;;;8.73;2.60;;;;;;;15.40;100.00;100396.31;6090204;28;20543;-64
2023/08/04 05:24:54;;;;;;;7.90;2.33;;;;;;;15.35;100.00;100380.00;6091363;28;20037;-64
2023/08/04 05:27:52;;;;;;;6.80;2.40;;;;;;;15.42;100.00;100380.09;6098044;28;20032;-65
2023/08/04 05:30:48;;;;;;;6.75;2.45;;;;;;;15.46;100.00;100381.41;6093422;28;20036;-65
2023/08/04 05:33:43;;;;;;;7.95;2.67;;;;;;;15.81;100.00;100393.16;6097895;28;20408;-65
2023/08/04 05:36:39;;;;;;;9.27;2.53;;;;;;;16.16;100.00;100395.00;6104438;28;20095;-65
2023/08/04 05:39:34;;;;;;;5.22;2.08;;;;;;;16.39;100.00;100379.56;6097886;28;20021;-65
2023/08/04 05:42:29;;;;;;;7.83;2.13;;;;;;;16.53;100.00;100397.44;6097914;28;20773;-64
2023/08/04 05:45:25;;;;;;;6.17;2.70;;;;;;;16.32;100.00;100393.91;6105148;28;20482;-65
2023/08/04 05:48:20;;;;;;;8.85;2.38;;;;;;;16.34;100.00;100408.75;6097075;28;20037;-65
2023/08/04 05:51:16;;;;;;;7.87;2.20;;;;;;;16.19;100.00;100421.38;6103974;28;20056;-65
2023/08/04 05:54:11;;;;;;;7.40;2.28;;;;;;;16.13;100.00;100422.13;6097129;28;20271;-65
2023/08/04 05:57:06;;;;;;;9.53;2.07;;;;;;;15.92;100.00;100398.84;6097865;28;20041;-65
2023/08/04 06:00:03;;;;;;;5.90;2.10;;;;;;;16.00;100.00;100414.78;6102150;28;20037;-65
2023/08/04 06:02:59;;;;;;;4.28;2.13;;;;;;;15.93;100.00;100410.38;6102497;28;20380;-66
2023/08/04 06:05:54;;;;;;;12.57;2.53;;;;;;;15.96;100.00;100410.00;6101443;28;20041;-65
2023/08/04 06:08:50;;;;;;;4.30;1.73;;;;;;;15.95;100.00;100425.19;6110941;28;20389;-65
2023/08/04 06:11:45;;;;;;;6.60;2.33;;;;;;;16.06;100.00;100416.69;6100719;28;20045;-65
2023/08/04 06:14:42;;;;;;;10.77;3.37;;;;;;;16.01;100.00;100426.31;6096741;28;20021;-65
2023/08/04 06:17:38;;;;;;;7.60;2.38;;;;;;;16.02;100.00;100426.13;6096037;28;20271;-65
2023/08/04 06:20:33;;;;;;;9.57;2.45;;;;;;;15.95;100.00;100419.06;6097031;28;20033;-65
2023/08/04 06:23:28;;;;;;;10.83;3.40;;;;;;;15.91;100.00;100417.75;6096584;28;20036;-65
2023/08/04 06:26:24;;;;;;;7.93;2.53;;;;;;;15.94;100.00;100420.06;6097442;28;20072;-65
2023/08/04 06:29:19;;;;;;;10.13;2.63;;;;;;;16.06;100.00;100427.38;6105589;28;20040;-65
2023/08/04 06:32:14;;;;;;;6.47;2.60;;;;;;;16.09;100.00;100420.84;6097574;28;20028;-64
2023/08/04 06:35:10;;;;;;;6.53;2.33;;;;;;;16.13;100.00;100421.28;6097133;28;20078;-65
2023/08/04 06:38:05;;;;;;;5.70;2.50;;;;;;;16.30;100.00;100442.28;6097912;28;20033;-65
2023/08/04 06:41:00;;;;;;;5.60;2.50;;;;;;;16.27;100.00;100429.28;6104350;28;20040;-65
2023/08/04 06:43:55;;;;;;;9.67;2.83;;;;;;;16.34;100.00;100440.88;6096599;28;20372;-65
2023/08/04 06:46:51;;;;;;;6.60;2.20;;;;;;;16.24;100.00;100437.69;6097368;28;20354;-65
2023/08/04 06:49:46;;;;;;;10.87;2.60;;;;;;;16.43;100.00;100444.28;6106780;28;20453;-65
2023/08/04 06:52:41;;;;;;;8.67;2.37;;;;;;;16.51;100.00;100436.13;6101712;28;20041;-65
2023/08/04 06:55:37;;;;;;;5.57;2.20;;;;;;;16.58;100.00;100456.59;6109130;28;20032;-65
2023/08/04 06:58:32;;;;;;;5.90;2.40;;;;;;;16.70;100.00;100464.13;6102477;28;20376;-65
2023/08/04 07:01:27;;;;;;;7.43;2.37;;;;;;;16.69;100.00;100454.47;6101692;28;20032;-65
2023/08/04 07:04:22;;;;;;;7.23;2.07;;;;;;;16.92;100.00;100460.41;6100296;28;20083;-65
2023/08/04 07:07:18;;;;;;;7.30;2.30;;;;;;;17.03;100.00;100457.22;6106719;28;20028;-65
2023/08/04 07:10:13;;;;;;;6.50;2.47;;;;;;;17.20;100.00;100486.19;6101840;28;20404;-65
2023/08/04 07:13:08;;;;;;;5.70;2.30;;;;;;;17.40;100.00;100483.66;6103024;28;20277;-65
2023/08/04 07:16:04;;;;;;;11.10;2.53;;;;;;;17.41;100.00;100477.28;6102769;28;20318;-65
2023/08/04 07:18:59;;;;;;;9.90;2.57;;;;;;;17.40;100.00;100491.72;6104035;28;20036;-65
2023/08/04 07:21:54;;;;;;;6.73;2.17;;;;;;;17.28;100.00;100495.97;6115504;28;20047;-65
2023/08/04 07:24:53;;;;;;;6.63;2.50;;;;;;;17.26;100.00;100488.09;6099981;28;20044;-65
2023/08/04 07:27:48;;;;;;;8.52;2.10;;;;;;;17.28;100.00;100483.38;6105210;28;20555;-65
2023/08/04 07:30:44;;;;;;;5.75;1.95;;;;;;;17.33;100.00;100490.84;6103160;28;20029;-65
2023/08/04 07:33:39;;;;;;;8.23;2.40;;;;;;;17.57;100.00;100511.88;6105244;28;20272;-65
2023/08/04 07:36:34;;;;;;;8.43;2.50;;;;;;;17.51;100.00;100495.69;6100859;28;20017;-65
2023/08/04 07:39:30;;;;;;;6.23;1.90;;;;;;;17.58;100.00;100504.66;6109871;28;20361;-65
2023/08/04 07:42:25;;;;;;;6.20;1.90;;;;;;;17.68;100.00;100511.34;6100731;28;20033;-65
2023/08/04 07:45:20;;;;;;;5.85;2.08;;;;;;;17.70;99.22;100514.63;6100077;28;20048;-65
2023/08/04 07:48:16;;;;;;;4.77;2.03;;;;;;;17.66;99.83;100524.13;6099965;28;20099;-65
2023/08/04 07:51:11;;;;;;;8.77;2.07;;;;;;;17.64;98.18;100518.09;6100470;28;20387;-65
2023/08/04 07:54:06;;;;;;;6.77;2.37;;;;;;;17.61;99.07;100526.53;6099381;28;20028;-65
2023/08/04 07:57:03;;;;;;;4.83;1.80;;;;;;;17.66;98.55;100524.13;6093067;28;20036;-66
2023/08/04 07:59:58;;;;;;;5.80;1.70;;;;;;;17.72;98.03;100517.13;6098448;28;20025;-65
2023/08/04 08:02:53;;;;;;;5.63;2.00;;;;;;;17.95;97.46;100532.94;6106383;28;20025;-65
2023/08/04 08:05:48;;;;;;;5.77;2.03;;;;;;;18.03;95.99;100524.72;6100010;28;20072;-65
2023/08/04 08:08:47;;;;;;;5.13;1.50;;;;;;;18.09;93.99;100535.50;6106091;28;20107;-65
2023/08/04 08:11:42;;;;;;;3.83;1.55;;;;;;;18.08;94.43;100533.84;6099629;28;20029;-65
2023/08/04 08:14:37;;;;;;;8.80;2.10;;;;;;;18.18;91.99;100533.50;6098922;28;20079;-65
2023/08/04 08:17:33;;;;;;;4.93;1.53;;;;;;;18.19;91.30;100549.38;6099884;28;20585;-66
2023/08/04 08:20:28;;;;;;;4.97;1.53;;;;;;;18.17;91.14;100538.03;6109548;28;20021;-65
2023/08/04 08:23:23;;;;;;;6.03;1.80;;;;;;;18.12;91.95;100539.66;6098554;28;20111;-66
2023/08/04 08:26:19;;;;;;;5.17;1.50;;;;;;;18.33;91.72;100539.53;6099902;28;20299;-65
2023/08/04 08:29:14;;;;;;;5.00;1.50;;;;;;;18.22;89.41;100534.72;6099119;28;20039;-65
2023/08/04 08:32:09;;;;;;;3.67;1.23;;;;;;;18.41;88.14;100555.47;6099709;28;20504;-65
2023/08/04 08:35:05;;;;;;;5.20;1.30;;;;;;;18.12;89.08;100545.84;6099055;28;20135;-65
2023/08/04 08:38:01;;;;;;;2.58;1.20;;;;;;;18.26;89.23;100560.97;6110446;28;20031;-66
2023/08/04 08:40:56;;;;;;;4.33;1.50;;;;;;;18.10;89.27;100539.84;6099868;28;20033;-65
2023/08/04 08:43:51;;;;;;;3.40;1.83;;;;;;;18.37;88.83;100571.13;6099189;28;20025;-66
2023/08/04 08:46:47;;;;;;;3.50;1.00;;;;;;;18.38;89.97;100566.59;6099120;28;20033;-65
2023/08/04 08:49:47;;;;;;;5.70;1.35;;;;;;;18.31;88.55;100574.66;6099006;28;20555;-65
2023/08/04 08:52:44;;;;;;;5.53;1.27;;;;;;;18.34;88.38;100566.16;6113227;28;20039;-66
2023/08/04 08:55:40;;;;;;;2.17;1.20;;;;;;;18.54;88.75;100577.03;6101089;28;20032;-66
2023/08/04 08:58:35;;;;;;;5.85;1.65;;;;;;;18.41;87.35;100567.03;6098634;28;20056;-65
2023/08/04 09:01:30;;;;;;;4.73;1.50;;;;;;;18.48;88.81;100566.28;6110085;28;20037;-65
2023/08/04 09:04:28;;;;;;;5.17;1.40;;;;;;;18.55;88.30;100572.50;6098086;28;20021;-66
2023/08/04 09:07:23;;;;;;;2.80;1.17;;;;;;;18.64;89.12;100580.19;6097884;28;20120;-65
2023/08/04 09:10:19;;;;;;;4.15;1.23;;;;;;;18.65;86.62;100567.56;6098338;28;20503;-65
2023/08/04 09:13:15;;;;;;;3.80;1.20;;;;;;;19.00;86.38;100578.00;6105646;28;20051;-66
2023/08/04 09:16:12;;;;;;;3.60;1.30;;;;;;;19.09;85.87;100572.41;6098306;28;20033;-66
2023/08/04 09:19:07;;;;;;;7.75;1.20;;;;;;;19.14;85.21;100583.38;6102268;28;20020;-66
2023/08/04 09:22:03;;;;;;;3.20;1.00;;;;;;;19.20;84.05;100579.88;6098461;28;20036;-66
2023/08/04 09:24:59;;;;;;;3.45;1.10;;;;;;;19.23;82.73;100587.53;6097622;28;20025;-65
2023/08/04 09:27:55;;;;;;;3.17;1.67;;;;;;;19.34;82.22;100582.38;6108276;28;20081;-65
2023/08/04 09:31:04;;;;;;;4.00;1.38;;;;;;;19.52;82.50;100590.69;6100192;28;20428;-66
2023/08/04 09:34:00;;;;;;;3.17;1.13;;;;;;;19.74;81.32;100580.53;6097336;28;20140;-66
2023/08/04 09:36:56;;;;;;;6.90;1.23;;;;;;;19.79;79.15;100588.81;6100620;28;20476;-66
2023/08/04 09:39:51;;;;;;;6.55;1.25;;;;;;;20.11;78.93;100571.75;6116726;28;20036;-65
2023/08/04 09:42:48;;;;;;;4.03;1.00;;;;;;;20.56;72.95;100588.00;6102187;28;20139;-66
2023/08/04 09:45:43;;;;;;;5.95;1.20;;;;;;;20.45;73.00;100575.22;6099155;28;20152;-65
2023/08/04 09:48:38;;;;;;;4.37;1.20;;;;;;;20.49;72.80;100573.75;6100159;28;20058;-66
2023/08/04 09:51:40;;;;;;;4.28;1.00;;;;;;;20.69;70.71;100582.56;6100189;28;20029;-66
2023/08/04 09:54:35;;;;;;;2.10;1.00;;;;;;;20.00;71.35;100593.16;6099325;28;20059;-66
2023/08/04 09:57:31;;;;;;;3.17;1.10;;;;;;;20.02;73.26;100591.06;6113196;28;20036;-66
2023/08/04 10:00:26;;;;;;;3.85;1.00;;;;;;;19.93;76.53;100589.63;6096562;28;20055;-66
2023/08/04 10:03:21;;;;;;;2.10;0.90;;;;;;;19.57;77.00;100572.06;6099536;28;20094;-66
2023/08/04 10:06:17;;;;;;;1.87;0.80;;;;;;;19.47;77.79;100589.66;6097682;28;20495;-66
2023/08/04 10:09:13;;;;;;;5.32;1.50;;;;;;;19.38;78.34;100583.66;6102798;28;20099;-65
2023/08/04 10:12:08;;;;;;;2.05;0.98;;;;;;;19.61;76.06;100588.63;6102984;28;20115;-66
2023/08/04 10:15:05;;;;;;;3.75;1.15;;;;;;;19.77;74.61;100585.50;6095628;28;20111;-66
2023/08/04 10:18:00;;;;;;;5.68;1.13;;;;;;;20.14;73.52;100586.66;6097195;28;20402;-66
2023/08/04 10:21:00;;;;;;;4.40;1.10;;;;;;;20.34;72.15;100597.41;6096249;28;20036;-66
2023/08/04 10:23:58;;;;;;;2.40;1.00;;;;;;;20.17;72.89;100579.00;6099408;28;20119;-66
2023/08/04 10:26:54;;;;;;;2.70;1.20;;;;;;;20.25;72.49;100582.56;6099227;28;20021;-66
2023/08/04 10:30:08;;;;;;;3.97;1.00;;;;;;;20.45;70.37;100586.81;6107790;28;20029;-66
2023/08/04 10:33:10;;;;;;;1.58;0.85;;;;;;;20.91;69.28;100594.69;6092056;28;20267;-66
2023/08/04 10:36:08;;;;;;;2.90;0.90;;;;;;;21.73;65.38;100591.81;6101504;28;20033;-66
2023/08/04 10:39:30;;;;;;;2.28;1.15;;;;;;;21.81;63.72;100596.94;6104276;28;20327;-66
2023/08/04 10:42:29;;;;;;;2.10;1.10;;;;;;;21.43;64.45;100598.09;6104193;28;20037;-66
2023/08/04 10:45:52;;;;;;;2.40;1.23;;;;;;;20.77;64.85;100593.09;6105239;28;20475;-65
2023/08/04 10:48:47;;;;;;;2.72;1.10;;;;;;;20.42;68.63;100589.09;6101678;28;20035;-65
2023/08/04 10:51:45;;;;;;;2.77;1.20;;;;;;;20.45;69.97;100596.75;6102732;28;20029;-66
2023/08/04 10:54:41;;;;;;;5.13;1.30;;;;;;;20.58;70.27;100599.41;6099915;28;20138;-66
2023/08/04 10:57:37;;;;;;;1.85;0.93;;;;;;;20.49;69.78;100584.53;6100168;28;20074;-66
2023/08/04 11:00:34;;;;;;;3.03;0.88;;;;;;;20.40;71.21;100593.88;6097492;28;20040;-66
2023/08/04 11:03:33;;;;;;;2.20;1.02;;;;;;;20.22;68.77;100604.50;6081864;28;20025;-66
2023/08/04 11:06:28;;;;;;;3.80;0.82;;;;;;;20.10;69.78;100613.22;6099278;28;20028;-65
2023/08/04 11:09:24;;;;;;;3.25;0.90;;;;;;;20.11;69.87;100604.06;6103880;28;20074;-66
2023/08/04 11:12:19;;;;;;;4.03;1.17;;;;;;;20.39;69.17;100611.06;6111128;28;20033;-65
2023/08/04 11:15:15;;;;;;;3.95;0.90;;;;;;;20.46;67.81;100611.91;6100465;28;20028;-66
2023/08/04 11:18:11;;;;;;;4.27;1.27;;;;;;;20.43;70.44;100625.78;6101043;28;20048;-66
2023/08/04 11:21:07;;;;;;;4.70;1.15;;;;;;;20.02;70.30;100601.84;6108761;28;20037;-66
2023/08/04 11:24:02;;;;;;;4.27;0.93;;;;;;;20.05;70.96;100621.09;6100448;28;20025;-66
2023/08/04 11:26:57;;;;;;;4.00;1.23;;;;;;;20.02;72.98;100610.75;6105443;28;20274;-65
2023/08/04 11:29:53;;;;;;;2.23;1.10;;;;;;;20.08;71.78;100623.34;6100999;28;20124;-66
2023/08/04 11:32:51;;;;;;;1.90;0.90;;;;;;;20.00;71.84;100625.44;6100484;28;20271;-65
2023/08/04 11:35:47;;;;;;;3.70;0.90;;;;;;;20.01;71.74;100617.16;6098809;28;20104;-66
2023/08/04 11:38:42;;;;;;;2.73;0.83;;;;;;;19.94;73.74;100616.34;6103115;28;20025;-66
2023/08/04 11:41:38;;;;;;;5.03;1.00;;;;;;;19.92;73.78;100604.94;6104143;28;20043;-66
2023/08/04 11:44:33;;;;;;;2.33;1.05;;;;;;;19.94;73.76;100619.03;6115241;28;20021;-66
2023/08/04 11:47:29;;;;;;;3.90;0.90;;;;;;;20.30;71.80;100612.38;6107039;28;20033;-66
2023/08/04 11:50:25;;;;;;;1.63;0.85;;;;;;;20.41;69.90;100598.25;6099093;28;20032;-66
2023/08/04 11:53:20;;;;;;;3.08;1.08;;;;;;;21.15;64.98;100612.00;6095960;28;20061;-66
2023/08/04 11:56:16;;;;;;;2.22;0.90;;;;;;;21.38;62.33;100600.63;6103343;28;20471;-66
2023/08/04 11:59:12;;;;;;;2.30;0.93;;;;;;;22.07;59.13;100595.88;6100049;28;20044;-66
2023/08/04 12:02:08;;;;;;;2.55;0.88;;;;;;;22.08;56.92;100613.75;6100025;28;20025;-66
2023/08/04 12:05:08;;;;;;;4.00;1.17;;;;;;;22.01;57.88;100599.50;6099506;28;20376;-66
2023/08/04 12:08:13;;;;;;;;;;;;;;;22.13;57.50;100616.59;6103013;28;20029;-66
2023/08/04 12:11:10;;;;;;;2.80;0.75;;;;;;;22.65;56.93;100598.16;6107073;28;19915;-66
2023/08/04 12:14:10;;;;;;;2.45;0.93;;;;;;;22.69;53.86;100599.34;6095921;28;20062;-66
2023/08/04 12:17:05;;;;;;;1.88;0.60;;;;;;;23.40;54.60;100607.53;6101035;28;20044;-66
2023/08/04 12:20:01;;;;;;;4.07;0.97;;;;;;;23.40;51.55;100592.09;6096665;28;20033;-66
2023/08/04 12:23:12;;;;;;;2.70;1.00;;;;;;;23.40;52.44;100602.91;6096378;28;20430;-67
2023/08/04 12:26:07;;;;;;;2.40;0.73;;;;;;;23.60;53.70;100614.25;6095433;28;20267;-66
2023/08/04 12:29:03;;;;;;;2.97;0.90;;;;;;;23.68;53.54;100600.38;6097780;28;20041;-67
2023/08/04 12:31:58;;;;;;;4.57;0.80;;;;;;;23.65;53.57;100600.84;6095330;28;20275;-66
2023/08/04 12:34:56;;;;;;;2.67;1.00;;;;;;;23.47;53.66;100614.47;6095737;28;20037;-66
2023/08/04 12:37:52;;;;;;;2.90;0.80;;;;;;;23.50;56.57;100605.91;6106311;28;20039;-66
2023/08/04 12:40:47;;;;;;;2.03;1.00;;;;;;;23.69;54.09;100609.34;6096205;28;20430;-66
2023/08/04 12:43:43;;;;;;;2.72;1.05;;;;;;;23.82;53.31;100605.56;6095121;28;20072;-66
2023/08/04 12:46:38;;;;;;;3.00;0.90;;;;;;;23.67;55.37;100606.84;6095816;28;20039;-66
2023/08/04 12:49:33;;;;;;;2.80;0.80;;;;;;;23.74;54.29;100614.88;6096086;28;20045;-67
2023/08/04 12:52:29;;;;;;;2.90;0.90;;;;;;;23.51;55.91;100604.81;6096419;28;20033;-66
2023/08/04 12:55:25;;;;;;;2.23;1.13;;;;;;;23.64;56.62;100607.31;6094990;28;20399;-66
2023/08/04 12:58:21;;;;;;;1.92;1.00;;;;;;;23.95;51.24;100608.84;6095698;28;20282;-66
2023/08/04 13:01:16;;;;;;;1.63;0.90;;;;;;;24.07;51.93;100592.59;6095582;28;20112;-66
2023/08/04 13:04:11;;;;;;;1.70;0.80;;;;;;;24.38;51.33;100603.06;6094883;28;20478;-67
2023/08/04 13:07:07;;;;;;;0.87;0.67;;;;;;;24.25;50.55;100611.47;6095974;28;20029;-66
2023/08/04 13:10:02;;;;;;;2.03;0.90;;;;;;;23.32;52.83;100614.03;6097401;28;20040;-67
2023/08/04 13:12:57;;;;;;;0.98;0.85;;;;;;;22.95;54.75;100621.47;6104754;28;20067;-67
2023/08/04 13:15:53;;;;;;;2.05;0.77;;;;;;;22.61;58.09;100623.97;6099967;28;20456;-66
2023/08/04 13:18:51;;;;;;;2.08;0.90;;;;;;;22.81;60.04;100603.75;6097866;28;20060;-66
2023/08/04 13:21:47;;;;;;;2.78;1.00;;;;;;;23.69;57.67;100623.69;6095394;28;20032;-66
2023/08/04 13:24:42;;;;;;;2.33;1.03;;;;;;;23.64;55.17;100618.13;6094025;28;20051;-66
2023/08/04 13:27:38;;;;;;;5.07;1.20;;;;;;;24.03;54.71;100602.25;6094861;28;20041;-66
2023/08/04 13:30:34;;;;;;;2.15;1.17;;;;;;;23.64;55.61;100626.25;6093706;28;20025;-66
2023/08/04 13:33:29;;;;;;;3.63;1.00;;;;;;;22.92;56.55;100626.50;6094275;28;20059;-67